createdAt,value
2019-05-01T00:00:00.330Z,0.00
2019-05-01T00:01:53.336Z,0.00
2019-05-01T00:02:53.371Z,0.00
2019-05-01T00:04:46.350Z,0.00
2019-05-01T00:05:46.405Z,0.00
2019-05-01T00:07:39.458Z,0.00
2019-05-01T00:08:39.458Z,0.00
2019-05-01T00:10:32.430Z,0.00
2019-05-01T00:11:32.485Z,0.00
2019-05-01T00:13:25.500Z,0.00
2019-05-01T00:14:25.529Z,0.00
2019-05-01T00:16:18.506Z,0.00
2019-05-01T00:17:18.568Z,0.00
2019-05-01T00:19:11.589Z,0.00
2019-05-01T00:20:11.613Z,0.00
2019-05-01T00:22:04.602Z,0.00
2019-05-01T00:23:04.664Z,0.00
2019-05-01T00:24:57.678Z,0.00
2019-05-01T00:25:57.707Z,0.00
2019-05-01T00:27:50.698Z,0.00
2019-05-01T00:28:50.741Z,0.00
2019-05-01T00:30:43.752Z,0.00
2019-05-01T00:31:43.789Z,0.00
2019-05-01T00:33:36.796Z,0.00
2019-05-01T00:34:36.857Z,0.00
2019-05-01T00:36:29.856Z,0.00
2019-05-01T00:37:29.897Z,0.00
2019-05-01T00:39:22.897Z,0.00
2019-05-01T00:40:22.935Z,0.00
2019-05-01T00:42:15.934Z,0.00
2019-05-01T00:43:15.978Z,0.00
2019-05-01T00:45:09.043Z,0.00
2019-05-01T00:46:09.075Z,0.00
2019-05-01T00:48:02.059Z,0.00
2019-05-01T00:49:02.116Z,0.00
2019-05-01T00:50:55.124Z,0.00
2019-05-01T00:51:55.152Z,0.00
2019-05-01T00:53:48.136Z,0.00
2019-05-01T00:54:48.200Z,0.00
2019-05-01T00:56:41.193Z,0.00
2019-05-01T00:57:41.228Z,0.00
2019-05-01T00:59:34.228Z,0.00
2019-05-01T01:00:42.896Z,0.00
2019-05-01T01:02:27.298Z,0.00
2019-05-01T01:03:27.340Z,0.00
2019-05-01T01:05:20.820Z,0.00
2019-05-01T01:06:20.878Z,0.00
2019-05-01T01:08:13.891Z,0.00
2019-05-01T01:09:13.915Z,0.00
2019-05-01T01:11:06.899Z,0.00
2019-05-01T01:12:06.958Z,0.00
2019-05-01T01:13:59.948Z,0.00
2019-05-01T01:14:59.993Z,0.00
2019-05-01T01:16:52.979Z,0.00
2019-05-01T01:17:53.036Z,0.00
2019-05-01T01:19:46.040Z,0.00
2019-05-01T01:20:46.078Z,0.00
2019-05-01T01:22:39.057Z,0.00
2019-05-01T01:23:39.119Z,0.00
2019-05-01T01:25:32.132Z,0.00
2019-05-01T01:26:32.162Z,0.00
2019-05-01T01:28:25.136Z,0.00
2019-05-01T01:29:25.194Z,0.00
2019-05-01T01:31:18.199Z,0.00
2019-05-01T01:32:18.236Z,0.00
2019-05-01T01:34:11.228Z,0.00
2019-05-01T01:35:11.284Z,0.00
2019-05-01T01:37:04.303Z,0.00
2019-05-01T01:38:04.329Z,0.00
2019-05-01T01:39:57.310Z,0.00
2019-05-01T01:40:57.369Z,0.00
2019-05-01T01:42:50.371Z,0.00
2019-05-01T01:43:50.405Z,0.00
2019-05-01T01:45:43.421Z,0.00
2019-05-01T01:46:43.446Z,0.00
2019-05-01T01:48:36.437Z,0.00
2019-05-01T01:49:36.494Z,0.00
2019-05-01T01:51:29.522Z,0.00
2019-05-01T01:52:29.557Z,0.00
2019-05-01T01:54:22.546Z,0.00
2019-05-01T01:55:22.603Z,0.00
2019-05-01T01:57:15.614Z,0.00
2019-05-01T01:58:15.645Z,0.00
2019-05-01T02:00:08.636Z,0.00
2019-05-01T02:01:09.861Z,0.00
2019-05-01T02:03:01.692Z,0.00
2019-05-01T02:04:01.733Z,0.00
2019-05-01T02:05:56.245Z,0.00
2019-05-01T02:06:56.277Z,0.00
2019-05-01T02:08:56.402Z,0.00
2019-05-01T02:09:49.322Z,0.00
2019-05-01T02:11:42.293Z,0.00
2019-05-01T02:12:42.358Z,0.00
2019-05-01T02:14:35.370Z,0.00
2019-05-01T02:15:35.398Z,0.00
2019-05-01T02:17:28.381Z,0.00
2019-05-01T02:18:28.441Z,0.00
2019-05-01T02:20:21.442Z,0.00
2019-05-01T02:21:21.477Z,0.00
2019-05-01T02:23:14.480Z,0.00
2019-05-01T02:24:14.520Z,0.00
2019-05-01T02:26:07.525Z,0.00
2019-05-01T02:27:07.566Z,0.00
2019-05-01T02:29:00.571Z,0.00
2019-05-01T02:30:00.611Z,0.00
2019-05-01T02:31:53.615Z,0.00
2019-05-01T02:32:53.645Z,0.00
2019-05-01T02:34:46.623Z,0.00
2019-05-01T02:35:46.681Z,0.00
2019-05-01T02:37:39.684Z,0.00
2019-05-01T02:38:39.725Z,0.00
2019-05-01T02:40:32.732Z,0.00
2019-05-01T02:41:32.758Z,0.00
2019-05-01T02:43:25.754Z,0.00
2019-05-01T02:44:25.803Z,0.00
2019-05-01T02:46:18.813Z,0.00
2019-05-01T02:47:18.844Z,0.00
2019-05-01T02:49:11.829Z,0.00
2019-05-01T02:50:11.888Z,0.00
2019-05-01T02:52:04.907Z,0.00
2019-05-01T02:53:04.932Z,0.00
2019-05-01T02:54:57.912Z,0.00
2019-05-01T02:55:57.970Z,0.00
2019-05-01T02:57:50.984Z,0.00
2019-05-01T02:58:51.005Z,0.00
2019-05-01T03:00:44.006Z,0.00
2019-05-01T03:01:47.668Z,0.00
2019-05-01T03:03:37.062Z,0.00
2019-05-01T03:04:37.106Z,0.00
2019-05-01T03:06:30.083Z,0.00
2019-05-01T03:07:30.148Z,0.00
2019-05-01T03:09:23.172Z,0.00
2019-05-01T03:10:23.197Z,0.00
2019-05-01T03:12:16.170Z,0.00
2019-05-01T03:13:16.226Z,0.00
2019-05-01T03:15:09.237Z,0.00
2019-05-01T03:16:09.270Z,0.00
2019-05-01T03:18:02.244Z,0.00
2019-05-01T03:19:02.302Z,0.00
2019-05-01T03:20:55.309Z,0.00
2019-05-01T03:21:55.348Z,0.00
2019-05-01T03:23:48.337Z,0.00
2019-05-01T03:24:48.389Z,0.00
2019-05-01T03:26:41.389Z,0.00
2019-05-01T03:27:41.435Z,0.00
2019-05-01T03:29:34.417Z,0.00
2019-05-01T03:30:34.475Z,0.00
2019-05-01T03:32:27.478Z,0.00
2019-05-01T03:33:27.512Z,0.00
2019-05-01T03:35:20.521Z,0.00
2019-05-01T03:36:20.568Z,0.00
2019-05-01T03:38:13.533Z,0.00
2019-05-01T03:39:13.593Z,0.00
2019-05-01T03:41:06.599Z,0.00
2019-05-01T03:42:06.629Z,0.00
2019-05-01T03:43:59.637Z,0.00
2019-05-01T03:44:59.671Z,0.00
2019-05-01T03:46:52.653Z,0.00
2019-05-01T03:47:52.706Z,0.00
2019-05-01T03:49:45.710Z,0.00
2019-05-01T03:50:47.003Z,0.00
2019-05-01T03:52:38.739Z,0.00
2019-05-01T03:53:38.784Z,0.00
2019-05-01T03:55:31.765Z,0.00
2019-05-01T03:56:31.829Z,0.00
2019-05-01T03:58:24.833Z,0.00
2019-05-01T03:59:24.872Z,0.00
2019-05-01T04:01:17.843Z,0.00
2019-05-01T04:02:32.304Z,0.00
2019-05-01T04:04:10.923Z,0.00
2019-05-01T04:05:10.960Z,0.00
2019-05-01T04:07:03.941Z,0.00
2019-05-01T04:08:04.011Z,0.00
2019-05-01T04:09:57.007Z,0.00
2019-05-01T04:10:57.036Z,0.00
2019-05-01T04:12:50.017Z,0.00
2019-05-01T04:13:50.071Z,0.00
2019-05-01T04:15:43.079Z,0.00
2019-05-01T04:16:43.108Z,0.00
2019-05-01T04:18:36.099Z,0.00
2019-05-01T04:19:36.152Z,0.00
2019-05-01T04:21:29.166Z,0.00
2019-05-01T04:22:29.189Z,0.00
2019-05-01T04:24:22.170Z,0.00
2019-05-01T04:25:22.232Z,0.00
2019-05-01T04:27:15.234Z,0.00
2019-05-01T04:28:15.267Z,0.00
2019-05-01T04:30:08.249Z,0.00
2019-05-01T04:31:08.311Z,0.00
2019-05-01T04:33:01.314Z,0.00
2019-05-01T04:34:01.344Z,0.00
2019-05-01T04:35:54.335Z,0.00
2019-05-01T04:36:54.394Z,0.00
2019-05-01T04:38:47.409Z,0.00
2019-05-01T04:39:47.445Z,0.00
2019-05-01T04:41:40.425Z,0.00
2019-05-01T04:42:40.479Z,0.00
2019-05-01T04:44:33.512Z,0.00
2019-05-01T04:45:33.515Z,0.00
2019-05-01T04:47:26.527Z,0.00
2019-05-01T04:48:26.561Z,0.00
2019-05-01T04:50:19.530Z,0.00
2019-05-01T04:51:19.590Z,0.00
2019-05-01T04:53:12.586Z,0.00
2019-05-01T04:54:12.628Z,0.00
2019-05-01T04:56:05.609Z,0.00
2019-05-01T04:57:05.665Z,0.00
2019-05-01T04:58:58.668Z,0.00
2019-05-01T04:59:58.703Z,0.00
2019-05-01T05:01:51.687Z,0.00
2019-05-01T05:03:04.058Z,0.00
2019-05-01T05:04:44.754Z,0.00
2019-05-01T05:05:44.784Z,0.00
2019-05-01T05:07:37.765Z,0.00
2019-05-01T05:08:37.823Z,0.00
2019-05-01T05:10:30.830Z,0.00
2019-05-01T05:11:30.864Z,0.00
2019-05-01T05:13:23.839Z,0.00
2019-05-01T05:14:23.898Z,0.00
2019-05-01T05:16:16.906Z,0.00
2019-05-01T05:17:16.932Z,0.00
2019-05-01T05:19:09.911Z,0.00
2019-05-01T05:20:09.969Z,0.00
2019-05-01T05:22:03.017Z,0.00
2019-05-01T05:23:03.015Z,0.00
2019-05-01T05:24:56.021Z,0.00
2019-05-01T05:25:56.062Z,0.00
2019-05-01T05:27:49.037Z,0.00
2019-05-01T05:28:49.087Z,0.00
2019-05-01T05:30:42.093Z,0.00
2019-05-01T05:31:42.123Z,0.00
2019-05-01T05:33:35.104Z,0.00
2019-05-01T05:34:35.181Z,0.00
2019-05-01T05:36:28.203Z,0.00
2019-05-01T05:37:28.199Z,0.00
2019-05-01T05:39:21.199Z,0.00
2019-05-01T05:40:21.235Z,0.00
2019-05-01T05:42:14.242Z,0.00
2019-05-01T05:43:14.272Z,0.00
2019-05-01T05:45:07.248Z,0.00
2019-05-01T05:46:07.313Z,0.00
2019-05-01T05:48:00.311Z,0.00
2019-05-01T05:49:00.348Z,0.00
2019-05-01T05:50:53.376Z,0.00
2019-05-01T05:51:53.388Z,0.00
2019-05-01T05:53:46.367Z,0.00
2019-05-01T05:54:46.424Z,0.00
2019-05-01T05:56:39.424Z,0.00
2019-05-01T05:57:39.463Z,0.00
2019-05-01T05:59:32.461Z,0.00
2019-05-01T06:00:32.501Z,0.00
2019-05-01T06:02:25.509Z,0.00
2019-05-01T06:03:31.215Z,0.00
2019-05-01T06:05:20.045Z,0.00
2019-05-01T06:06:20.098Z,0.00
2019-05-01T06:08:13.096Z,0.00
2019-05-01T06:09:13.869Z,0.00
2019-05-01T06:11:06.134Z,0.00
2019-05-01T06:12:09.033Z,0.00
2019-05-01T06:13:59.190Z,0.00
2019-05-01T06:15:02.439Z,0.00
2019-05-01T06:16:54.015Z,0.00
2019-05-01T06:17:52.242Z,0.00
2019-05-01T06:19:45.922Z,0.00
2019-05-01T06:20:45.338Z,0.00
2019-05-01T06:22:40.762Z,0.00
2019-05-01T06:23:38.320Z,0.00
2019-05-01T06:25:31.316Z,0.00
2019-05-01T06:26:37.365Z,0.00
2019-05-01T06:28:24.694Z,0.00
2019-05-01T06:29:24.394Z,0.00
2019-05-01T06:31:17.728Z,0.00
2019-05-01T06:32:17.433Z,0.00
2019-05-01T06:34:10.414Z,0.00
2019-05-01T06:35:10.475Z,0.00
2019-05-01T06:37:03.486Z,0.00
2019-05-01T06:38:03.525Z,0.00
2019-05-01T06:39:56.503Z,0.00
2019-05-01T06:40:58.110Z,0.00
2019-05-01T06:42:50.116Z,0.00
2019-05-01T06:43:49.597Z,0.00
2019-05-01T06:45:42.576Z,0.00
2019-05-01T06:46:42.634Z,0.00
2019-05-01T06:48:35.647Z,0.00
2019-05-01T06:49:35.681Z,0.00
2019-05-01T06:51:28.668Z,0.00
2019-05-01T06:52:29.324Z,0.00
2019-05-01T06:54:21.732Z,0.00
2019-05-01T06:55:22.623Z,0.00
2019-05-01T06:57:14.760Z,0.00
2019-05-01T06:58:20.264Z,0.00
2019-05-01T07:00:09.291Z,0.00
2019-05-01T07:01:07.858Z,0.00
2019-05-01T07:03:00.833Z,0.00
2019-05-01T07:04:04.154Z,0.00
2019-05-01T07:05:56.231Z,0.00
2019-05-01T07:06:54.437Z,0.00
2019-05-01T07:08:47.426Z,0.00
2019-05-01T07:09:49.203Z,0.00
2019-05-01T07:11:42.316Z,0.00
2019-05-01T07:12:40.521Z,0.00
2019-05-01T07:14:33.529Z,0.00
2019-05-01T07:15:33.562Z,0.00
2019-05-01T07:17:26.539Z,0.00
2019-05-01T07:18:29.054Z,0.00
2019-05-01T07:20:19.611Z,0.00
2019-05-01T07:21:22.859Z,0.00
2019-05-01T07:23:12.912Z,0.00
2019-05-01T07:24:12.676Z,0.00
2019-05-01T07:26:09.981Z,0.00
2019-05-01T07:27:05.742Z,0.00
2019-05-01T07:28:58.732Z,0.00
2019-05-01T07:29:58.789Z,0.00
2019-05-01T07:31:51.791Z,0.00
2019-05-01T07:32:51.828Z,0.00
2019-05-01T07:34:44.824Z,0.00
2019-05-01T07:35:44.865Z,0.00
2019-05-01T07:37:37.871Z,0.00
2019-05-01T07:38:38.814Z,0.00
2019-05-01T07:40:30.890Z,0.48
2019-05-01T07:41:34.022Z,0.85
2019-05-01T07:43:25.687Z,0.95
2019-05-01T07:44:23.983Z,0.09
2019-05-01T07:46:18.339Z,2.28
2019-05-01T07:47:17.023Z,3.72
2019-05-01T07:49:13.161Z,7.63
2019-05-01T07:50:10.069Z,8.48
2019-05-01T07:52:03.045Z,8.39
2019-05-01T07:53:03.095Z,8.29
2019-05-01T07:54:56.110Z,11.35
2019-05-01T07:55:56.145Z,12.97
2019-05-01T07:57:49.152Z,16.88
2019-05-01T07:58:52.063Z,16.11
2019-05-01T08:00:42.664Z,13.06
2019-05-01T08:01:42.217Z,15.45
2019-05-01T08:03:38.011Z,17.93
2019-05-01T08:04:36.215Z,18.12
2019-05-01T08:06:28.264Z,17.35
2019-05-01T08:07:32.372Z,17.83
2019-05-01T08:09:21.288Z,18.02
2019-05-01T08:10:25.912Z,17.55
2019-05-01T08:12:14.504Z,12.68
2019-05-01T08:13:14.383Z,11.72
2019-05-01T08:15:07.363Z,15.83
2019-05-01T08:16:08.787Z,14.21
2019-05-01T08:18:00.426Z,17.64
2019-05-01T08:19:04.161Z,20.13
2019-05-01T08:20:53.450Z,21.18
2019-05-01T08:21:57.001Z,27.00
2019-05-01T08:23:47.250Z,20.99
2019-05-01T08:24:46.556Z,20.03
2019-05-01T08:26:43.773Z,26.14
2019-05-01T08:27:39.615Z,25.38
2019-05-01T08:29:32.593Z,22.23
2019-05-01T08:30:32.640Z,23.09
2019-05-01T08:32:25.648Z,19.74
2019-05-01T08:33:25.680Z,20.70
2019-05-01T08:35:18.664Z,17.46
2019-05-01T08:36:18.721Z,16.41
2019-05-01T08:38:11.732Z,16.89
2019-05-01T08:39:13.874Z,19.74
2019-05-01T08:41:04.776Z,25.47
2019-05-01T08:42:06.986Z,25.09
2019-05-01T08:43:57.839Z,25.09
2019-05-01T08:44:59.950Z,24.71
2019-05-01T08:46:52.080Z,28.14
2019-05-01T08:47:50.910Z,26.90
2019-05-01T08:49:49.452Z,27.57
2019-05-01T08:50:43.952Z,29.38
2019-05-01T08:52:36.934Z,28.05
2019-05-01T08:53:36.998Z,27.95
2019-05-01T08:55:30.022Z,26.14
2019-05-01T08:56:30.050Z,27.00
2019-05-01T08:58:23.049Z,25.77
2019-05-01T08:59:24.120Z,20.33
2019-05-01T09:01:16.437Z,20.51
2019-05-01T09:02:16.137Z,18.33
2019-05-01T09:04:13.134Z,27.20
2019-05-01T09:05:27.277Z,28.92
2019-05-01T09:07:02.187Z,29.69
2019-05-01T09:08:02.243Z,31.50
2019-05-01T09:09:55.234Z,33.60
2019-05-01T09:11:00.089Z,34.08
2019-05-01T09:12:48.378Z,35.60
2019-05-01T09:13:48.319Z,35.91
2019-05-01T09:15:43.643Z,38.30
2019-05-01T09:16:41.358Z,39.64
2019-05-01T09:18:34.334Z,39.35
2019-05-01T09:19:34.401Z,42.02
2019-05-01T09:21:27.395Z,34.57
2019-05-01T09:22:27.444Z,38.49
2019-05-01T09:24:23.019Z,40.01
2019-05-01T09:25:20.498Z,36.19
2019-05-01T09:27:13.508Z,36.39
2019-05-01T09:28:13.544Z,39.54
2019-05-01T09:30:06.548Z,43.36
2019-05-01T09:31:06.587Z,43.46
2019-05-01T09:32:59.573Z,42.69
2019-05-01T09:33:59.628Z,42.11
2019-05-01T09:35:52.635Z,40.80
2019-05-01T09:36:52.669Z,42.52
2019-05-01T09:38:45.680Z,46.72
2019-05-01T09:39:47.310Z,46.44
2019-05-01T09:41:42.800Z,47.18
2019-05-01T09:42:38.773Z,44.81
2019-05-01T09:44:31.769Z,47.11
2019-05-01T09:45:31.817Z,46.25
2019-05-01T09:47:24.837Z,46.82
2019-05-01T09:48:24.864Z,45.10
2019-05-01T09:50:17.889Z,41.38
2019-05-01T09:51:17.903Z,42.14
2019-05-01T09:53:10.925Z,48.25
2019-05-01T09:54:11.037Z,48.28
2019-05-01T09:56:07.791Z,54.39
2019-05-01T09:57:04.011Z,57.26
2019-05-01T09:58:57.006Z,53.06
2019-05-01T09:59:57.037Z,49.55
2019-05-01T10:01:50.023Z,56.62
2019-05-01T10:02:50.087Z,49.64
2019-05-01T10:04:43.096Z,60.16
2019-05-01T10:05:44.208Z,62.65
2019-05-01T10:07:36.135Z,65.81
2019-05-01T10:08:40.026Z,66.86
2019-05-01T10:10:30.458Z,62.97
2019-05-01T10:11:29.235Z,63.26
2019-05-01T10:13:24.053Z,63.80
2019-05-01T10:14:24.357Z,61.69
2019-05-01T10:16:15.297Z,56.34
2019-05-01T10:17:15.337Z,63.42
2019-05-01T10:19:08.401Z,62.20
2019-05-01T10:20:08.440Z,64.40
2019-05-01T10:22:03.720Z,56.43
2019-05-01T10:23:01.503Z,58.73
2019-05-01T10:24:54.516Z,62.84
2019-05-01T10:25:55.518Z,64.02
2019-05-01T10:27:47.535Z,64.22
2019-05-01T10:28:49.973Z,66.13
2019-05-01T10:30:40.639Z,66.45
2019-05-01T10:31:42.853Z,64.34
2019-05-01T10:33:36.691Z,65.68
2019-05-01T10:34:38.793Z,62.52
2019-05-01T10:36:30.241Z,62.81
2019-05-01T10:37:33.732Z,66.83
2019-05-01T10:39:22.742Z,72.38
2019-05-01T10:40:26.938Z,68.27
2019-05-01T10:42:15.805Z,66.16
2019-05-01T10:43:15.851Z,65.39
2019-05-01T10:45:08.845Z,73.47
2019-05-01T10:46:08.910Z,80.56
2019-05-01T10:48:01.939Z,74.37
2019-05-01T10:49:01.955Z,74.15
2019-05-01T10:50:54.946Z,75.90
2019-05-01T10:51:55.216Z,75.71
2019-05-01T10:53:48.035Z,74.18
2019-05-01T10:54:48.054Z,75.43
2019-05-01T10:56:41.034Z,76.35
2019-05-01T10:57:42.238Z,74.95
2019-05-01T10:59:34.118Z,83.00
2019-05-01T11:00:34.162Z,82.27
2019-05-01T11:02:27.675Z,83.91
2019-05-01T11:03:27.711Z,83.52
2019-05-01T11:05:21.225Z,85.77
2019-05-01T11:06:21.285Z,85.44
2019-05-01T11:08:14.293Z,82.79
2019-05-01T11:09:14.335Z,82.21
2019-05-01T11:11:07.323Z,87.11
2019-05-01T11:12:07.382Z,86.63
2019-05-01T11:14:00.401Z,77.58
2019-05-01T11:15:00.440Z,76.62
2019-05-01T11:16:53.425Z,80.64
2019-05-01T11:17:53.500Z,84.23
2019-05-01T11:19:46.528Z,80.64
2019-05-01T11:20:46.554Z,82.85
2019-05-01T11:22:39.557Z,76.57
2019-05-01T11:23:39.605Z,75.01
2019-05-01T11:25:32.593Z,76.54
2019-05-01T11:26:32.655Z,73.38
2019-05-01T11:28:25.664Z,69.89
2019-05-01T11:29:25.703Z,66.86
2019-05-01T11:31:18.719Z,75.87
2019-05-01T11:32:18.751Z,76.25
2019-05-01T11:34:11.741Z,63.51
2019-05-01T11:35:11.803Z,68.11
2019-05-01T11:37:04.813Z,74.37
2019-05-01T11:38:04.852Z,69.26
2019-05-01T11:39:57.876Z,69.17
2019-05-01T11:40:57.909Z,72.32
2019-05-01T11:42:50.894Z,70.56
2019-05-01T11:43:50.961Z,64.25
2019-05-01T11:45:43.978Z,62.55
2019-05-01T11:46:43.996Z,69.74
2019-05-01T11:48:36.987Z,76.35
2019-05-01T11:49:37.044Z,76.92
2019-05-01T11:51:30.062Z,74.62
2019-05-01T11:52:30.101Z,73.66
2019-05-01T11:54:23.622Z,75.20
2019-05-01T11:55:23.858Z,74.52
2019-05-01T11:57:16.702Z,75.96
2019-05-01T11:58:16.729Z,74.52
2019-05-01T12:00:09.719Z,75.29
2019-05-01T12:01:09.779Z,69.68
2019-05-01T12:03:02.785Z,81.37
2019-05-01T12:04:02.863Z,81.22
2019-05-01T12:05:56.351Z,82.98
2019-05-01T12:06:56.382Z,80.58
2019-05-01T12:08:49.468Z,83.37
2019-05-01T12:09:49.459Z,83.80
2019-05-01T12:11:42.449Z,80.43
2019-05-01T12:12:42.512Z,86.15
2019-05-01T12:14:35.540Z,81.07
2019-05-01T12:15:35.562Z,79.34
2019-05-01T12:17:28.549Z,81.26
2019-05-01T12:18:28.611Z,83.56
2019-05-01T12:20:21.975Z,82.79
2019-05-01T12:21:21.916Z,85.19
2019-05-01T12:23:14.921Z,84.61
2019-05-01T12:24:14.966Z,86.34
2019-05-01T12:26:10.981Z,83.47
2019-05-01T12:27:11.118Z,82.03
2019-05-01T12:29:04.023Z,80.97
2019-05-01T12:30:04.083Z,82.21
2019-05-01T12:32:12.766Z,80.26
2019-05-01T12:33:12.474Z,82.21
2019-05-01T12:35:05.551Z,80.97
2019-05-01T12:36:05.536Z,76.90
2019-05-01T12:37:58.545Z,79.59
2019-05-01T12:38:58.580Z,81.74
2019-05-01T12:40:51.568Z,78.86
2019-05-01T12:41:51.639Z,82.46
2019-05-01T12:43:44.631Z,75.21
2019-05-01T12:44:44.679Z,81.84
2019-05-01T12:46:37.683Z,84.33
2019-05-01T12:47:38.156Z,77.86
2019-05-01T12:49:30.711Z,79.59
2019-05-01T12:50:30.773Z,83.27
2019-05-01T12:52:23.781Z,77.38
2019-05-01T12:53:23.828Z,73.35
2019-05-01T12:55:16.814Z,79.49
2019-05-01T12:56:16.876Z,82.94
2019-05-01T12:58:09.883Z,74.31
2019-05-01T12:59:09.928Z,79.78
2019-05-01T13:01:02.910Z,83.04
2019-05-01T13:02:02.975Z,74.60
2019-05-01T13:03:55.992Z,79.21
2019-05-01T13:04:56.030Z,76.81
2019-05-01T13:06:49.713Z,76.81
2019-05-01T13:07:49.075Z,81.22
2019-05-01T13:09:42.064Z,75.95
2019-05-01T13:10:42.115Z,80.16
2019-05-01T13:12:35.130Z,78.67
2019-05-01T13:13:35.169Z,80.45
2019-05-01T13:15:28.175Z,77.90
2019-05-01T13:16:28.227Z,78.05
2019-05-01T13:18:21.234Z,73.55
2019-05-01T13:19:21.550Z,81.41
2019-05-01T13:21:14.283Z,79.11
2019-05-01T13:22:14.328Z,79.21
2019-05-01T13:24:07.319Z,82.65
2019-05-01T13:25:07.403Z,81.26
2019-05-01T13:27:00.385Z,83.23
2019-05-01T13:28:00.431Z,83.23
2019-05-01T13:29:53.428Z,79.91
2019-05-01T13:30:53.476Z,81.74
2019-05-01T13:32:46.991Z,83.65
2019-05-01T13:33:47.031Z,85.86
2019-05-01T13:35:40.052Z,80.05
2019-05-01T13:36:40.081Z,80.30
2019-05-01T13:38:33.069Z,85.58
2019-05-01T13:39:33.125Z,86.15
2019-05-01T13:41:26.123Z,85.28
2019-05-01T13:42:26.176Z,84.00
2019-05-01T13:44:19.181Z,83.61
2019-05-01T13:45:19.224Z,84.48
2019-05-01T13:47:12.212Z,83.42
2019-05-01T13:48:12.286Z,84.77
2019-05-01T13:50:05.271Z,83.61
2019-05-01T13:51:05.319Z,81.70
2019-05-01T13:52:58.310Z,77.95
2019-05-01T13:53:58.370Z,78.09
2019-05-01T13:55:51.373Z,78.09
2019-05-01T13:56:51.416Z,81.93
2019-05-01T13:58:44.419Z,83.65
2019-05-01T13:59:44.465Z,83.71
2019-05-01T14:01:37.472Z,82.65
2019-05-01T14:02:37.515Z,82.27
2019-05-01T14:04:30.526Z,77.80
2019-05-01T14:05:30.574Z,80.68
2019-05-01T14:07:23.585Z,83.94
2019-05-01T14:08:23.626Z,83.75
2019-05-01T14:10:16.643Z,84.95
2019-05-01T14:11:16.681Z,80.16
2019-05-01T14:13:09.691Z,78.86
2019-05-01T14:14:09.735Z,86.72
2019-05-01T14:16:02.743Z,83.81
2019-05-01T14:17:02.783Z,81.89
2019-05-01T14:18:55.809Z,79.88
2019-05-01T14:19:55.839Z,77.67
2019-05-01T14:21:48.825Z,83.42
2019-05-01T14:22:48.901Z,75.95
2019-05-01T14:24:41.914Z,82.08
2019-05-01T14:25:41.962Z,80.49
2019-05-01T14:27:34.940Z,85.72
2019-05-01T14:28:35.002Z,83.81
2019-05-01T14:30:28.050Z,83.61
2019-05-01T14:31:28.094Z,83.14
2019-05-01T14:33:21.088Z,83.18
2019-05-01T14:34:21.147Z,80.97
2019-05-01T14:36:14.156Z,82.41
2019-05-01T14:37:14.201Z,79.72
2019-05-01T14:39:07.196Z,85.67
2019-05-01T14:40:07.249Z,87.01
2019-05-01T14:42:00.266Z,84.42
2019-05-01T14:43:00.301Z,83.94
2019-05-01T14:44:53.284Z,82.08
2019-05-01T14:45:55.890Z,82.08
2019-05-01T14:47:46.349Z,84.77
2019-05-01T14:48:46.393Z,79.24
2019-05-01T14:50:39.445Z,82.21
2019-05-01T14:51:39.466Z,81.64
2019-05-01T14:53:32.437Z,83.08
2019-05-01T14:54:32.504Z,86.25
2019-05-01T14:56:25.509Z,76.84
2019-05-01T14:57:25.547Z,86.25
2019-05-01T14:59:18.581Z,83.56
2019-05-01T15:00:18.595Z,83.75
2019-05-01T15:02:11.577Z,81.26
2019-05-01T15:03:11.641Z,81.45
2019-05-01T15:05:04.647Z,84.81
2019-05-01T15:06:04.689Z,81.07
2019-05-01T15:07:57.677Z,81.16
2019-05-01T15:08:57.738Z,83.75
2019-05-01T15:10:50.754Z,85.48
2019-05-01T15:11:50.790Z,84.42
2019-05-01T15:13:43.796Z,86.63
2019-05-01T15:14:43.837Z,83.94
2019-05-01T15:16:36.848Z,86.63
2019-05-01T15:17:36.898Z,84.52
2019-05-01T15:19:29.881Z,85.28
2019-05-01T15:20:29.947Z,85.10
2019-05-01T15:22:22.947Z,86.82
2019-05-01T15:23:23.003Z,85.86
2019-05-01T15:25:15.986Z,84.33
2019-05-01T15:26:16.047Z,82.37
2019-05-01T15:28:09.060Z,84.95
2019-05-01T15:29:09.100Z,81.98
2019-05-01T15:31:02.117Z,81.79
2019-05-01T15:32:02.147Z,85.25
2019-05-01T15:33:55.135Z,79.88
2019-05-01T15:34:55.190Z,85.82
2019-05-01T15:36:48.194Z,85.44
2019-05-01T15:37:56.494Z,85.15
2019-05-01T15:39:41.223Z,85.25
2019-05-01T15:40:41.285Z,79.59
2019-05-01T15:42:34.332Z,85.63
2019-05-01T15:43:34.331Z,86.05
2019-05-01T15:45:27.316Z,84.42
2019-05-01T15:46:27.378Z,87.30
2019-05-01T15:48:20.393Z,86.15
2019-05-01T15:49:20.454Z,85.44
2019-05-01T15:51:13.443Z,84.67
2019-05-01T15:52:13.487Z,85.44
2019-05-01T15:54:06.524Z,85.05
2019-05-01T15:55:06.528Z,84.86
2019-05-01T15:56:59.555Z,83.71
2019-05-01T15:57:59.587Z,81.70
2019-05-01T15:59:52.695Z,85.11
2019-05-01T16:00:52.668Z,85.78
2019-05-01T16:02:45.637Z,85.30
2019-05-01T16:03:45.691Z,84.34
2019-05-01T16:05:38.735Z,84.15
2019-05-01T16:06:38.781Z,83.00
2019-05-01T16:08:31.806Z,84.05
2019-05-01T16:09:31.862Z,83.09
2019-05-01T16:11:24.876Z,83.95
2019-05-01T16:12:24.909Z,84.28
2019-05-01T16:14:17.909Z,84.09
2019-05-01T16:15:17.976Z,84.95
2019-05-01T16:17:10.983Z,85.53
2019-05-01T16:18:11.060Z,85.15
2019-05-01T16:20:04.042Z,85.15
2019-05-01T16:21:04.076Z,86.21
2019-05-01T16:22:57.054Z,85.82
2019-05-01T16:23:57.115Z,86.58
2019-05-01T16:25:50.133Z,86.88
2019-05-01T16:26:50.172Z,85.67
2019-05-01T16:28:43.193Z,87.11
2019-05-01T16:29:43.279Z,87.30
2019-05-01T16:31:36.275Z,87.68
2019-05-01T16:32:36.307Z,87.59
2019-05-01T16:34:29.338Z,87.59
2019-05-01T16:35:29.357Z,86.92
2019-05-01T16:37:22.365Z,87.16
2019-05-01T16:38:23.435Z,87.55
2019-05-01T16:40:15.398Z,86.11
2019-05-01T16:41:15.464Z,85.34
2019-05-01T16:43:08.477Z,87.02
2019-05-01T16:44:08.522Z,82.32
2019-05-01T16:46:01.574Z,83.86
2019-05-01T16:47:01.652Z,82.42
2019-05-01T16:48:54.638Z,83.48
2019-05-01T16:49:54.682Z,82.32
2019-05-01T16:51:47.669Z,82.52
2019-05-01T16:52:47.728Z,82.04
2019-05-01T16:54:40.741Z,80.56
2019-05-01T16:55:40.781Z,80.85
2019-05-01T16:57:33.796Z,80.47
2019-05-01T16:58:33.844Z,84.30
2019-05-01T17:00:26.849Z,84.68
2019-05-01T17:01:26.890Z,85.25
2019-05-01T17:03:19.876Z,84.20
2019-05-01T17:04:19.935Z,83.63
2019-05-01T17:06:12.951Z,82.48
2019-05-01T17:07:12.981Z,83.34
2019-05-01T17:09:05.966Z,84.11
2019-05-01T17:10:06.031Z,84.44
2019-05-01T17:11:59.034Z,84.53
2019-05-01T17:12:59.076Z,84.25
2019-05-01T17:14:52.085Z,82.52
2019-05-01T17:15:52.145Z,82.62
2019-05-01T17:17:45.127Z,85.01
2019-05-01T17:18:45.183Z,83.48
2019-05-01T17:20:38.197Z,84.25
2019-05-01T17:21:38.232Z,84.72
2019-05-01T17:23:31.219Z,83.58
2019-05-01T17:24:31.278Z,83.58
2019-05-01T17:26:24.290Z,83.92
2019-05-01T17:27:24.330Z,82.76
2019-05-01T17:29:17.320Z,82.96
2019-05-01T17:30:17.378Z,83.34
2019-05-01T17:32:10.888Z,79.80
2019-05-01T17:33:19.831Z,80.94
2019-05-01T17:35:06.695Z,81.43
2019-05-01T17:36:03.977Z,82.29
2019-05-01T17:37:56.992Z,79.89
2019-05-01T17:38:57.033Z,80.76
2019-05-01T17:40:51.949Z,80.56
2019-05-01T17:41:50.104Z,78.27
2019-05-01T17:43:44.784Z,80.76
2019-05-01T17:44:43.150Z,80.71
2019-05-01T17:46:36.147Z,81.57
2019-05-01T17:47:36.200Z,80.81
2019-05-01T17:49:29.185Z,78.42
2019-05-01T17:50:29.244Z,78.42
2019-05-01T17:52:22.254Z,78.89
2019-05-01T17:53:22.296Z,77.51
2019-05-01T17:55:15.318Z,75.89
2019-05-01T17:56:18.697Z,74.55
2019-05-01T17:58:08.333Z,75.22
2019-05-01T17:59:08.399Z,74.55
2019-05-01T18:01:01.408Z,72.25
2019-05-01T18:02:05.159Z,74.07
2019-05-01T18:03:54.455Z,72.63
2019-05-01T18:04:54.495Z,73.02
2019-05-01T18:06:47.937Z,72.88
2019-05-01T18:07:47.543Z,72.92
2019-05-01T18:09:40.546Z,72.69
2019-05-01T18:10:40.742Z,69.35
2019-05-01T18:12:33.608Z,68.68
2019-05-01T18:13:33.643Z,67.91
2019-05-01T18:15:26.622Z,68.01
2019-05-01T18:16:26.684Z,66.00
2019-05-01T18:18:19.688Z,65.14
2019-05-01T18:19:19.730Z,65.81
2019-05-01T18:21:12.739Z,65.42
2019-05-01T18:22:12.773Z,63.57
2019-05-01T18:24:05.806Z,64.53
2019-05-01T18:25:05.843Z,63.86
2019-05-01T18:26:58.832Z,63.48
2019-05-01T18:27:58.896Z,63.76
2019-05-01T18:29:51.907Z,62.04
2019-05-01T18:30:56.430Z,62.33
2019-05-01T18:32:46.893Z,62.14
2019-05-01T18:33:45.494Z,61.28
2019-05-01T18:35:38.505Z,60.71
2019-05-01T18:36:38.564Z,60.99
2019-05-01T18:38:31.537Z,59.66
2019-05-01T18:39:31.590Z,58.80
2019-05-01T18:41:24.603Z,59.44
2019-05-01T18:42:24.641Z,57.55
2019-05-01T18:44:17.657Z,57.43
2019-05-01T18:45:20.165Z,57.14
2019-05-01T18:47:10.694Z,56.18
2019-05-01T18:48:10.757Z,55.71
2019-05-01T18:50:03.724Z,55.23